KDLF/DLF METAR and TAF weather

Enter ICAO airport designator
Station Type Date Time Source
KDLF METAR 2021/01/20 18:56 UTC NOAA

KDLF 201856Z 31011KT 10SM OVC007 08/07 A3029 RMK AO2A SLP259 T00830069 $


Station Type Date Time Source
KDLF Decoded METAR 2021/01/20 18:56 UTC NOAA

Laughlin, Laughlin Air Force Base Auxiliary Airfield, TX, United States (KDLF) 29-07-00N 100-28-00W 294M
Jan 20, 2021 - 01:56 PM EST / 2021.01.20 1856 UTC
Wind: from the NW (310 degrees) at 13 MPH (11 KT):0
Visibility: 10 mile(s):0
Sky conditions: overcast
Temperature: 46.9 F (8.3 C)
Dew Point: 44.4 F (6.9 C)
Relative Humidity: 90%
Pressure (altimeter): 30.29 in. Hg (1025 hPa)
ob: KDLF 201856Z 31011KT 10SM OVC007 08/07 A3029 RMK AO2A SLP259 T00830069
cycle: 19

Station Type Date Time Source
KDLF TAF 2021/01/20 18:54 UTC NOAA

TAF KDLF 201841Z 2018/2119 31009KT 9999 OVC006 QNH3031INS
BECMG 2018/2019 33012KT 8000 -SHRA BR OVC008 QNH3027INS
BECMG 2020/2021 34010KT 8000 -SHRA BR OVC020 QNH3022INS
BECMG 2023/2024 35008KT 9999 VCSH OVC030 QNH3016INS
BECMG 2103/2104 VRB06KT 9999 NSW OVC020 QNH3014INS
BECMG 2114/2115 33007KT 9999 VCSH OVC015 QNH3009INS
BECMG 2116/2117 VRB06KT 9999 NSW OVC020 QNH3006INS TX16/2021Z TN07/2113Z

Example: see airport list